createdAt,value
2018-01-04T00:00:22.024Z,16.90
2018-01-04T00:02:49.193Z,16.90
2018-01-04T00:05:16.358Z,16.80
2018-01-04T00:07:43.524Z,16.80
2018-01-04T00:10:10.774Z,16.80
2018-01-04T00:12:37.938Z,16.80
2018-01-04T00:15:05.917Z,16.80
2018-01-04T00:17:33.845Z,16.80
2018-01-04T00:20:01.009Z,16.80
2018-01-04T00:22:28.173Z,16.80
2018-01-04T00:24:55.346Z,16.70
2018-01-04T00:27:23.281Z,16.80
2018-01-04T00:29:50.485Z,16.80
2018-01-04T00:32:17.654Z,16.90
2018-01-04T00:34:44.821Z,16.80
2018-01-04T00:37:12.021Z,16.80
2018-01-04T00:39:39.961Z,16.70
2018-01-04T00:42:07.125Z,16.80
2018-01-04T00:44:34.294Z,16.80
2018-01-04T00:47:02.229Z,16.80
2018-01-04T00:49:29.394Z,16.80
2018-01-04T00:51:56.561Z,16.80
2018-01-04T00:54:24.492Z,16.60
2018-01-04T00:56:51.653Z,16.60
2018-01-04T00:59:18.888Z,16.70
2018-01-04T01:01:46.024Z,16.70
2018-01-04T01:04:13.199Z,16.70
2018-01-04T01:06:40.376Z,16.70
2018-01-04T01:09:08.314Z,16.70
2018-01-04T01:11:35.517Z,16.70
2018-01-04T01:14:02.685Z,16.70
2018-01-04T01:16:29.890Z,16.70
2018-01-04T01:18:57.053Z,16.80
2018-01-04T01:21:25.021Z,17.00
2018-01-04T01:23:52.184Z,17.00
2018-01-04T01:26:20.134Z,17.10
2018-01-04T01:28:47.309Z,17.10
2018-01-04T01:31:15.359Z,17.00
2018-01-04T01:33:42.525Z,17.00
2018-01-04T01:36:10.501Z,17.00
2018-01-04T01:38:38.430Z,17.00
2018-01-04T01:41:05.637Z,17.00
2018-01-04T01:43:32.798Z,17.00
2018-01-04T01:45:59.966Z,17.00
2018-01-04T01:48:27.134Z,17.00
2018-01-04T01:50:54.302Z,17.00
2018-01-04T01:53:21.558Z,16.90
2018-01-04T01:55:48.768Z,16.90
2018-01-04T01:58:15.974Z,16.80
2018-01-04T02:00:43.133Z,16.80
2018-01-04T02:03:10.359Z,16.80
2018-01-04T02:05:37.524Z,16.90
2018-01-04T02:08:04.689Z,16.90
2018-01-04T02:10:31.860Z,16.80
2018-01-04T02:12:59.790Z,16.90
2018-01-04T02:15:26.954Z,16.80
2018-01-04T02:18:00.058Z,16.90
2018-01-04T02:20:33.103Z,16.90
2018-01-04T02:23:06.195Z,16.90
2018-01-04T02:25:39.226Z,16.90
2018-01-04T02:28:13.273Z,16.90
2018-01-04T02:30:46.418Z,16.90
2018-01-04T02:33:19.582Z,16.90
2018-01-04T02:35:52.698Z,16.80
2018-01-04T02:38:25.886Z,16.80
2018-01-04T02:41:03.889Z,16.80
2018-01-04T02:43:37.850Z,16.80
2018-01-04T02:46:11.814Z,16.70
2018-01-04T02:48:38.977Z,16.70
2018-01-04T02:51:06.142Z,16.70
2018-01-04T02:53:34.083Z,16.70
2018-01-04T02:56:01.250Z,16.70
2018-01-04T02:58:28.418Z,16.80
2018-01-04T03:00:56.353Z,16.70
2018-01-04T03:03:23.521Z,16.70
2018-01-04T03:05:50.689Z,16.80
2018-01-04T03:08:18.625Z,16.70
2018-01-04T03:10:45.789Z,16.70
2018-01-04T03:13:12.962Z,16.70
2018-01-04T03:15:40.122Z,16.70
2018-01-04T03:18:08.065Z,16.70
2018-01-04T03:20:35.233Z,16.70
2018-01-04T03:23:09.064Z,16.90
2018-01-04T03:25:41.986Z,16.90
2018-01-04T03:28:14.997Z,17.00
2018-01-04T03:30:47.910Z,17.10
2018-01-04T03:33:21.578Z,17.10
2018-01-04T03:35:55.218Z,17.00
2018-01-04T03:38:28.882Z,17.00
2018-01-04T03:41:01.781Z,17.00
2018-01-04T03:43:34.838Z,17.00
2018-01-04T03:46:07.730Z,17.00
2018-01-04T03:48:49.774Z,17.00
2018-01-04T03:51:23.357Z,17.00
2018-01-04T03:53:56.249Z,17.00
2018-01-04T03:56:29.105Z,17.00
2018-01-04T03:59:01.908Z,17.00
2018-01-04T04:01:34.799Z,17.00
2018-01-04T04:04:01.973Z,17.00
2018-01-04T04:06:32.809Z,16.90
2018-01-04T04:09:00.742Z,16.80
2018-01-04T04:11:27.905Z,16.90
2018-01-04T04:13:55.110Z,16.90
2018-01-04T04:16:22.277Z,16.90
2018-01-04T04:18:49.450Z,16.90
2018-01-04T04:21:16.614Z,16.90
2018-01-04T04:23:43.776Z,16.90
2018-01-04T04:26:10.941Z,16.80
2018-01-04T04:28:38.874Z,16.80
2018-01-04T04:31:06.042Z,16.80
2018-01-04T04:33:33.209Z,16.80
2018-01-04T04:36:01.140Z,16.80
2018-01-04T04:38:28.310Z,16.80
2018-01-04T04:40:55.478Z,16.80
2018-01-04T04:43:23.412Z,16.80
2018-01-04T04:45:50.581Z,16.80
2018-01-04T04:48:17.747Z,16.70
2018-01-04T04:50:45.701Z,16.90
2018-01-04T04:53:12.881Z,16.80
2018-01-04T04:55:40.823Z,17.10
2018-01-04T04:58:07.989Z,17.10
2018-01-04T05:00:36.012Z,17.20
2018-01-04T05:03:03.201Z,17.10
2018-01-04T05:05:30.364Z,17.20
2018-01-04T05:07:58.302Z,17.10
2018-01-04T05:10:25.465Z,17.10
2018-01-04T05:12:52.629Z,17.10
2018-01-04T05:15:19.842Z,17.10
2018-01-04T05:17:47.004Z,17.10
2018-01-04T05:20:14.175Z,17.10
2018-01-04T05:22:41.343Z,17.10
2018-01-04T05:25:09.298Z,17.00
2018-01-04T05:27:36.468Z,17.00
2018-01-04T05:30:03.670Z,16.90
2018-01-04T05:32:31.437Z,16.90
2018-01-04T05:34:58.602Z,16.90
2018-01-04T05:37:25.766Z,16.90
2018-01-04T05:39:52.931Z,16.90
2018-01-04T05:42:20.105Z,16.90
2018-01-04T05:44:47.274Z,16.80
2018-01-04T05:47:14.445Z,16.80
2018-01-04T05:49:41.614Z,16.80
2018-01-04T05:52:08.784Z,16.80
2018-01-04T05:54:35.961Z,16.80
2018-01-04T05:57:03.933Z,17.00
2018-01-04T05:59:31.866Z,17.10
2018-01-04T06:01:59.066Z,17.10
2018-01-04T06:04:26.229Z,17.10
2018-01-04T06:06:53.397Z,17.10
2018-01-04T06:09:20.597Z,17.10
2018-01-04T06:11:48.529Z,17.00
2018-01-04T06:14:15.730Z,17.00
2018-01-04T06:16:43.667Z,17.00
2018-01-04T06:19:11.267Z,17.00
2018-01-04T06:21:39.201Z,16.90
2018-01-04T06:24:06.369Z,16.90
2018-01-04T06:26:34.366Z,16.90
2018-01-04T06:29:01.529Z,16.90
2018-01-04T06:31:28.707Z,16.90
2018-01-04T06:33:55.932Z,16.90
2018-01-04T06:36:23.119Z,16.90
2018-01-04T06:38:51.091Z,16.90
2018-01-04T06:41:18.254Z,16.90
2018-01-04T06:43:45.454Z,16.90
2018-01-04T06:46:12.633Z,16.80
2018-01-04T06:48:39.838Z,16.80
2018-01-04T06:51:07.769Z,16.90
2018-01-04T06:53:34.931Z,16.90
2018-01-04T06:56:02.105Z,16.90
2018-01-04T06:58:29.279Z,16.90
2018-01-04T07:00:56.450Z,16.90
2018-01-04T07:03:23.613Z,16.80
2018-01-04T07:05:50.818Z,16.80
2018-01-04T07:08:18.750Z,16.90
2018-01-04T07:10:45.952Z,16.90
2018-01-04T07:13:13.882Z,16.80
2018-01-04T07:15:41.083Z,16.80
2018-01-04T07:18:08.257Z,16.90
2018-01-04T07:20:35.421Z,17.00
2018-01-04T07:23:02.593Z,17.10
2018-01-04T07:25:29.765Z,17.20
2018-01-04T07:27:57.703Z,17.20
2018-01-04T07:30:24.873Z,17.20
2018-01-04T07:32:52.086Z,17.10
2018-01-04T07:35:19.255Z,17.10
2018-01-04T07:37:46.431Z,17.10
2018-01-04T07:40:13.629Z,17.10
2018-01-04T07:42:40.796Z,17.10
2018-01-04T07:45:07.967Z,17.10
2018-01-04T07:47:35.902Z,17.10
2018-01-04T07:50:03.110Z,17.10
2018-01-04T07:52:30.317Z,17.10
2018-01-04T07:54:57.485Z,17.00
2018-01-04T07:57:24.716Z,17.10
2018-01-04T07:59:51.883Z,17.10
2018-01-04T08:02:19.806Z,17.00
2018-01-04T08:04:47.782Z,16.90
2018-01-04T08:07:14.949Z,16.90
2018-01-04T08:09:42.119Z,17.00
2018-01-04T08:12:09.321Z,17.00
2018-01-04T08:14:37.256Z,17.00
2018-01-04T08:17:04.425Z,17.00
2018-01-04T08:19:31.593Z,17.00
2018-01-04T08:21:59.585Z,16.90
2018-01-04T08:24:26.806Z,17.00
2018-01-04T08:26:54.010Z,17.00
2018-01-04T08:29:22.063Z,17.10
2018-01-04T08:31:49.272Z,17.20
2018-01-04T08:34:16.440Z,17.20
2018-01-04T08:36:44.419Z,17.10
2018-01-04T08:39:12.362Z,17.10
2018-01-04T08:41:39.566Z,17.10
2018-01-04T08:44:06.735Z,17.00
2018-01-04T08:46:33.904Z,16.90
2018-01-04T08:49:01.073Z,16.90
2018-01-04T08:51:28.254Z,17.00
2018-01-04T08:53:56.193Z,17.00
2018-01-04T08:56:23.392Z,17.00
2018-01-04T08:58:50.562Z,16.90
2018-01-04T09:01:17.729Z,16.60
2018-01-04T09:03:44.898Z,16.50
2018-01-04T09:06:12.826Z,16.30
2018-01-04T09:08:39.996Z,16.30
2018-01-04T09:11:07.162Z,16.50
2018-01-04T09:13:35.093Z,16.60
2018-01-04T09:16:02.258Z,16.80
2018-01-04T09:18:29.434Z,16.80
2018-01-04T09:20:56.607Z,16.90
2018-01-04T09:23:23.773Z,16.90
2018-01-04T09:25:51.710Z,16.90
2018-01-04T09:28:18.877Z,16.80
2018-01-04T09:30:46.042Z,16.90
2018-01-04T09:33:13.230Z,17.00
2018-01-04T09:35:40.397Z,16.80
2018-01-04T09:38:07.601Z,16.90
2018-01-04T09:40:35.537Z,17.10
2018-01-04T09:43:02.705Z,17.10
2018-01-04T09:45:29.881Z,17.20
2018-01-04T09:47:57.814Z,17.30
2018-01-04T09:50:25.905Z,17.30
2018-01-04T09:52:53.118Z,17.30
2018-01-04T09:55:20.291Z,17.30
2018-01-04T09:57:47.461Z,17.20
2018-01-04T10:00:14.621Z,17.10
2018-01-04T10:02:41.786Z,17.20
2018-01-04T10:05:09.722Z,17.00
2018-01-04T10:07:36.890Z,17.00
2018-01-04T10:10:04.098Z,17.00
2018-01-04T10:12:31.269Z,17.00
2018-01-04T10:14:58.484Z,17.00
2018-01-04T10:17:25.649Z,17.00
2018-01-04T10:19:52.814Z,17.00
2018-01-04T10:22:19.990Z,16.90
2018-01-04T10:24:47.154Z,16.80
2018-01-04T10:27:14.359Z,16.80
2018-01-04T10:29:41.526Z,16.90
2018-01-04T10:32:08.734Z,16.80
2018-01-04T10:34:36.661Z,16.90
2018-01-04T10:37:03.869Z,16.90
2018-01-04T10:39:31.033Z,17.00
2018-01-04T10:41:58.234Z,17.10
2018-01-04T10:44:25.405Z,17.30
2018-01-04T10:46:53.337Z,17.30
2018-01-04T10:49:20.507Z,17.30
2018-01-04T10:51:47.686Z,17.40
2018-01-04T10:54:15.641Z,17.30
2018-01-04T10:56:42.886Z,17.30
2018-01-04T10:59:10.050Z,17.30
2018-01-04T11:01:37.253Z,17.20
2018-01-04T11:04:04.420Z,17.30
2018-01-04T11:06:31.626Z,17.20
2018-01-04T11:08:58.799Z,17.20
2018-01-04T11:11:26.037Z,17.20
2018-01-04T11:13:53.218Z,17.10
2018-01-04T11:16:20.430Z,17.10
2018-01-04T11:18:48.487Z,17.10
2018-01-04T11:21:15.693Z,17.10
2018-01-04T11:23:43.374Z,17.20
2018-01-04T11:26:11.314Z,17.00
2018-01-04T11:28:38.490Z,17.00
2018-01-04T11:31:05.697Z,17.00
2018-01-04T11:33:32.894Z,17.10
2018-01-04T11:36:00.845Z,17.10
2018-01-04T11:38:28.100Z,17.10
2018-01-04T11:40:55.279Z,17.00
2018-01-04T11:43:22.482Z,17.00
2018-01-04T11:45:49.730Z,17.00
2018-01-04T11:48:16.931Z,17.00
2018-01-04T11:50:44.094Z,17.00
2018-01-04T11:53:11.311Z,17.00
2018-01-04T11:55:38.726Z,17.00
2018-01-04T11:58:06.677Z,17.00
2018-01-04T12:00:33.894Z,17.00
2018-01-04T12:03:01.062Z,17.00
2018-01-04T12:05:28.226Z,17.00
2018-01-04T12:07:55.427Z,17.00
2018-01-04T12:10:22.635Z,16.90
2018-01-04T12:12:49.807Z,16.90
2018-01-04T12:15:17.742Z,17.00
2018-01-04T12:17:44.911Z,17.00
2018-01-04T12:20:12.110Z,17.00
2018-01-04T12:22:39.277Z,17.00
2018-01-04T12:25:06.490Z,16.90
2018-01-04T12:27:34.422Z,16.90
2018-01-04T12:30:01.586Z,16.90
2018-01-04T12:32:28.768Z,16.90
2018-01-04T12:34:56.745Z,16.90
2018-01-04T12:37:23.918Z,16.90
2018-01-04T12:39:51.126Z,16.90
2018-01-04T12:42:18.381Z,16.90
2018-01-04T12:50:19.733Z,17.10
2018-01-04T12:52:47.678Z,17.10
2018-01-04T12:55:14.858Z,17.10
2018-01-04T12:57:42.799Z,17.10
2018-01-04T13:00:09.961Z,17.10
2018-01-04T13:02:37.906Z,17.10
2018-01-04T13:05:05.078Z,17.10
2018-01-04T13:07:32.250Z,17.20
2018-01-04T13:10:00.191Z,17.10
2018-01-04T13:12:27.399Z,17.10
2018-01-04T13:14:54.571Z,17.00
2018-01-04T13:17:21.794Z,17.00
2018-01-04T13:19:48.966Z,17.00
2018-01-04T13:22:16.186Z,17.10
2018-01-04T13:24:43.352Z,17.10
2018-01-04T13:27:10.525Z,17.10
2018-01-04T13:29:37.690Z,17.00
2018-01-04T13:32:04.861Z,16.90
2018-01-04T13:34:32.030Z,17.00
2018-01-04T13:36:59.962Z,17.00
2018-01-04T13:39:27.244Z,17.00
2018-01-04T13:41:55.187Z,17.00
2018-01-04T13:44:22.358Z,17.00
2018-01-04T13:46:49.530Z,16.90
2018-01-04T13:49:17.463Z,17.00
2018-01-04T13:51:44.638Z,17.00
2018-01-04T13:54:12.579Z,17.00
2018-01-04T13:56:39.750Z,17.00
2018-01-04T13:59:06.920Z,17.00
2018-01-04T14:01:34.860Z,16.90
2018-01-04T14:04:02.034Z,16.90
2018-01-04T14:06:29.974Z,17.00
2018-01-04T14:08:57.143Z,16.90
2018-01-04T14:11:24.317Z,17.00
2018-01-04T14:13:52.267Z,16.90
2018-01-04T14:16:19.454Z,16.90
2018-01-04T14:18:46.629Z,16.90
2018-01-04T14:21:13.797Z,17.00
2018-01-04T14:23:40.998Z,17.00
2018-01-04T14:26:08.214Z,17.00
2018-01-04T14:28:35.385Z,17.00
2018-01-04T14:31:03.335Z,16.90
2018-01-04T14:33:30.506Z,16.90
2018-01-04T14:35:58.451Z,16.90
2018-01-04T14:38:25.667Z,16.90
2018-01-04T14:40:52.832Z,16.90
2018-01-04T14:43:20.034Z,16.90
2018-01-04T14:45:47.973Z,17.10
2018-01-04T14:48:15.210Z,17.10
2018-01-04T14:50:42.393Z,17.20
2018-01-04T14:53:09.572Z,17.20
2018-01-04T14:55:37.514Z,17.20
2018-01-04T14:58:04.689Z,17.20
2018-01-04T15:00:32.639Z,17.20
2018-01-04T15:03:00.597Z,17.20
2018-01-04T15:05:27.770Z,17.20
2018-01-04T15:07:55.710Z,17.20
2018-01-04T15:10:22.879Z,17.20
2018-01-04T15:12:50.049Z,17.20
2018-01-04T15:15:18.054Z,17.10
2018-01-04T15:17:45.250Z,17.10
2018-01-04T15:20:12.427Z,17.10
2018-01-04T15:22:40.362Z,17.20
2018-01-04T15:25:07.526Z,17.20
2018-01-04T15:27:34.701Z,17.20
2018-01-04T15:30:02.638Z,17.10
2018-01-04T15:32:29.820Z,17.10
2018-01-04T15:34:57.774Z,17.00
2018-01-04T15:37:24.945Z,17.10
2018-01-04T15:39:52.885Z,17.10
2018-01-04T15:42:20.089Z,17.10
2018-01-04T15:44:47.261Z,17.10
2018-01-04T15:47:14.469Z,17.10
2018-01-04T15:49:42.418Z,17.10
2018-01-04T15:52:09.636Z,17.10
2018-01-04T15:54:39.078Z,17.10
2018-01-04T15:57:08.183Z,17.10
2018-01-04T15:59:36.162Z,17.10
2018-01-04T16:02:04.098Z,17.00
2018-01-04T16:04:31.265Z,17.00
2018-01-04T16:06:58.438Z,17.00
2018-01-04T16:09:26.373Z,17.10
2018-01-04T16:11:53.537Z,17.10
2018-01-04T16:14:20.750Z,17.10
2018-01-04T16:16:47.951Z,17.10
2018-01-04T16:19:15.926Z,17.00
2018-01-04T16:21:43.861Z,17.00
2018-01-04T16:24:11.025Z,17.10
2018-01-04T16:26:38.235Z,17.10
2018-01-04T16:29:05.410Z,17.10
2018-01-04T16:31:32.581Z,17.10
2018-01-04T16:33:59.797Z,17.00
2018-01-04T16:36:26.970Z,16.90
2018-01-04T16:38:54.182Z,17.00
2018-01-04T16:41:21.357Z,17.10
2018-01-04T16:43:48.532Z,17.20
2018-01-04T16:46:15.705Z,17.30
2018-01-04T16:48:43.667Z,17.40
2018-01-04T16:51:10.880Z,17.30
2018-01-04T16:53:38.110Z,17.30
2018-01-04T16:56:05.286Z,17.30
2018-01-04T16:58:33.037Z,17.30
2018-01-04T17:01:00.210Z,17.30
2018-01-04T17:03:27.376Z,17.30
2018-01-04T17:05:54.541Z,17.30
2018-01-04T17:08:21.746Z,17.30
2018-01-04T17:10:48.945Z,17.20
2018-01-04T17:13:16.119Z,17.10
2018-01-04T17:15:44.063Z,17.20
2018-01-04T17:18:11.250Z,17.10
2018-01-04T17:20:38.453Z,17.20
2018-01-04T17:23:05.622Z,17.20
2018-01-04T17:25:32.794Z,17.20
2018-01-04T17:28:00.732Z,17.00
2018-01-04T17:30:27.910Z,17.00
2018-01-04T17:32:55.882Z,17.10
2018-01-04T17:35:23.823Z,17.00
2018-01-04T17:37:50.992Z,17.00
2018-01-04T17:40:18.934Z,17.00
2018-01-04T17:42:46.106Z,17.00
2018-01-04T17:45:13.275Z,17.00
2018-01-04T17:47:41.221Z,17.00
2018-01-04T17:50:08.395Z,17.00
2018-01-04T17:52:36.333Z,17.00
2018-01-04T17:55:03.503Z,17.00
2018-01-04T17:57:31.435Z,16.90
2018-01-04T17:59:58.610Z,16.90
2018-01-04T18:02:25.786Z,16.90
2018-01-04T18:04:53.726Z,17.00
2018-01-04T18:07:20.895Z,17.00
2018-01-04T18:09:48.075Z,17.10
2018-01-04T18:12:15.246Z,17.20
2018-01-04T18:14:42.435Z,17.30
2018-01-04T18:17:10.689Z,17.30
2018-01-04T18:19:37.857Z,17.40
2018-01-04T18:22:05.033Z,17.40
2018-01-04T18:24:32.201Z,17.40
2018-01-04T18:27:00.147Z,17.40
2018-01-04T18:29:27.331Z,17.40
2018-01-04T18:31:54.508Z,17.40
2018-01-04T18:34:21.725Z,17.40
2018-01-04T18:36:49.661Z,17.40
2018-01-04T18:39:16.833Z,17.30
2018-01-04T18:41:44.778Z,17.30
2018-01-04T18:44:12.021Z,17.30
2018-01-04T18:46:39.193Z,17.20
2018-01-04T18:49:06.365Z,17.20
2018-01-04T18:51:34.316Z,17.20
2018-01-04T18:54:01.493Z,17.20
2018-01-04T18:56:29.430Z,17.20
2018-01-04T18:58:56.602Z,17.20
2018-01-04T19:01:24.585Z,17.00
2018-01-04T19:03:52.522Z,17.00
2018-01-04T19:06:19.694Z,17.00
2018-01-04T19:08:47.634Z,17.10
2018-01-04T19:11:14.813Z,17.00
2018-01-04T19:13:42.764Z,17.00
2018-01-04T19:16:09.942Z,17.00
2018-01-04T19:18:37.921Z,16.90
2018-01-04T19:21:06.724Z,16.90
2018-01-04T19:23:33.954Z,16.90
2018-01-04T19:26:01.907Z,16.90
2018-01-04T19:28:29.087Z,16.90
2018-01-04T19:30:56.269Z,16.90
2018-01-04T19:33:23.446Z,16.90
2018-01-04T19:35:50.624Z,16.80
2018-01-04T19:38:18.574Z,16.80
2018-01-04T19:40:45.750Z,16.80
2018-01-04T19:43:13.725Z,16.80
2018-01-04T19:45:41.670Z,16.80
2018-01-04T19:48:08.838Z,16.80
2018-01-04T19:50:36.778Z,16.70
2018-01-04T19:53:03.998Z,16.70
2018-01-04T19:55:31.166Z,16.70
2018-01-04T19:57:58.381Z,16.80
2018-01-04T20:00:26.321Z,16.80
2018-01-04T20:02:53.541Z,16.80
2018-01-04T20:05:20.717Z,16.70
2018-01-04T20:07:47.926Z,16.60
2018-01-04T20:10:15.092Z,16.60
2018-01-04T20:12:42.309Z,16.70
2018-01-04T20:15:09.486Z,16.80
2018-01-04T20:17:36.659Z,16.90
2018-01-04T20:20:04.758Z,17.00
2018-01-04T20:22:32.942Z,17.10
2018-01-04T20:25:00.888Z,17.00
2018-01-04T20:27:28.058Z,17.00
2018-01-04T20:29:55.274Z,17.00
2018-01-04T20:32:22.457Z,17.00
2018-01-04T20:34:49.660Z,17.00
2018-01-04T20:37:16.887Z,17.00
2018-01-04T20:39:44.829Z,17.00
2018-01-04T20:42:12.098Z,17.00
2018-01-04T20:44:40.041Z,16.80
2018-01-04T20:47:07.250Z,16.80
2018-01-04T20:49:34.425Z,16.70
2018-01-04T20:52:01.615Z,16.70
2018-01-04T20:54:29.599Z,16.70
2018-01-04T20:56:57.539Z,16.70
2018-01-04T20:59:24.759Z,16.70
2018-01-04T21:01:51.961Z,16.60
2018-01-04T21:04:19.909Z,16.60
2018-01-04T21:06:47.618Z,16.60
2018-01-04T21:09:15.607Z,16.70
2018-01-04T21:11:42.776Z,16.60
2018-01-04T21:14:09.949Z,16.70
2018-01-04T21:16:37.133Z,16.60
2018-01-04T21:19:05.069Z,16.50
2018-01-04T21:21:32.238Z,16.50
2018-01-04T21:23:59.409Z,16.50
2018-01-04T21:26:27.345Z,16.50
2018-01-04T21:28:54.517Z,16.50
2018-01-04T21:31:22.465Z,16.50
2018-01-04T21:33:49.643Z,16.50
2018-01-04T21:36:17.618Z,16.40
2018-01-04T21:38:45.554Z,16.50
2018-01-04T21:41:12.768Z,16.50
2018-01-04T21:43:39.941Z,16.50
2018-01-04T21:46:07.117Z,16.50
2018-01-04T21:48:34.295Z,16.40
2018-01-04T21:51:02.224Z,16.40
2018-01-04T21:53:30.358Z,16.40
2018-01-04T21:55:57.528Z,16.30
2018-01-04T21:58:24.753Z,16.40
2018-01-04T22:00:51.932Z,16.40
2018-01-04T22:03:19.114Z,16.40
2018-01-04T22:05:46.286Z,16.40
2018-01-04T22:08:14.233Z,16.40
2018-01-04T22:10:41.413Z,16.40
2018-01-04T22:13:09.350Z,16.60
2018-01-04T22:15:36.564Z,16.60
2018-01-04T22:18:03.738Z,16.70
2018-01-04T22:20:30.914Z,16.70
2018-01-04T22:22:58.093Z,16.70
2018-01-04T22:25:26.045Z,16.70
2018-01-04T22:27:53.214Z,16.60
2018-01-04T22:30:21.168Z,16.70
2018-01-04T22:32:48.355Z,16.70
2018-01-04T22:35:15.560Z,16.80
2018-01-04T22:37:42.730Z,16.90
2018-01-04T22:40:10.702Z,16.80
2018-01-04T22:42:38.641Z,16.70
2018-01-04T22:45:06.768Z,16.70
2018-01-04T22:47:33.938Z,16.80
2018-01-04T22:50:01.109Z,16.80
2018-01-04T22:52:28.285Z,16.90
2018-01-04T22:54:55.457Z,16.80
2018-01-04T22:57:23.397Z,16.80
2018-01-04T22:59:50.566Z,16.80
2018-01-04T23:02:17.742Z,16.70
2018-01-04T23:04:45.714Z,16.80
2018-01-04T23:07:12.882Z,16.70
2018-01-04T23:09:40.056Z,16.80
2018-01-04T23:12:07.267Z,16.80
2018-01-04T23:14:35.202Z,16.70
2018-01-04T23:17:02.406Z,16.70
2018-01-04T23:19:29.580Z,16.80
2018-01-04T23:21:56.770Z,16.80
2018-01-04T23:24:24.303Z,16.80
2018-01-04T23:26:51.474Z,16.80
2018-01-04T23:29:18.650Z,16.70
2018-01-04T23:31:47.401Z,16.80
2018-01-04T23:34:14.573Z,16.70
2018-01-04T23:36:41.760Z,16.80
2018-01-04T23:39:08.939Z,16.80
2018-01-04T23:41:36.120Z,16.80
2018-01-04T23:44:03.332Z,16.90
2018-01-04T23:46:30.507Z,16.90
2018-01-04T23:48:57.722Z,16.80
2018-01-04T23:51:24.908Z,16.80
2018-01-04T23:53:52.078Z,16.80
2018-01-04T23:56:19.258Z,16.90
2018-01-04T23:58:47.225Z,16.90
